sensor_id;sensor_type;location;lat;lon;timestamp;temperature;humidity
22633;DHT22;11483;55.828;37.488;2023-02-28T00:01:25;-6.60;99.90
22633;DHT22;11483;55.828;37.488;2023-02-28T00:03:51;-6.60;99.90
22633;DHT22;11483;55.828;37.488;2023-02-28T00:06:17;-6.60;99.90
22633;DHT22;11483;55.828;37.488;2023-02-28T00:08:43;-6.60;99.90
22633;DHT22;11483;55.828;37.488;2023-02-28T00:11:11;-6.60;99.90
22633;DHT22;11483;55.828;37.488;2023-02-28T00:13:41;-6.60;99.90
22633;DHT22;11483;55.828;37.488;2023-02-28T00:16:10;-6.60;99.90
22633;DHT22;11483;55.828;37.488;2023-02-28T00:18:37;-6.60;99.90
22633;DHT22;11483;55.828;37.488;2023-02-28T00:21:03;-6.50;99.90
22633;DHT22;11483;55.828;37.488;2023-02-28T00:23:29;-6.60;99.90
22633;DHT22;11483;55.828;37.488;2023-02-28T00:25:55;-6.60;99.90
22633;DHT22;11483;55.828;37.488;2023-02-28T00:28:22;-6.60;99.90
22633;DHT22;11483;55.828;37.488;2023-02-28T00:30:48;-6.60;99.90
22633;DHT22;11483;55.828;37.488;2023-02-28T00:33:14;-6.60;99.90
22633;DHT22;11483;55.828;37.488;2023-02-28T00:35:40;-6.60;99.90
22633;DHT22;11483;55.828;37.488;2023-02-28T00:38:06;-6.60;99.90
22633;DHT22;11483;55.828;37.488;2023-02-28T00:40:31;-6.60;99.90
22633;DHT22;11483;55.828;37.488;2023-02-28T00:42:57;-6.80;99.90
22633;DHT22;11483;55.828;37.488;2023-02-28T00:45:23;-6.70;99.90
22633;DHT22;11483;55.828;37.488;2023-02-28T00:47:49;-6.70;99.90
22633;DHT22;11483;55.828;37.488;2023-02-28T00:50:19;-6.60;99.90
22633;DHT22;11483;55.828;37.488;2023-02-28T00:52:46;-6.60;99.90
22633;DHT22;11483;55.828;37.488;2023-02-28T00:55:12;-6.60;99.90
22633;DHT22;11483;55.828;37.488;2023-02-28T00:57:38;-6.70;99.90
22633;DHT22;11483;55.828;37.488;2023-02-28T01:00:04;-6.70;99.90
22633;DHT22;11483;55.828;37.488;2023-02-28T01:02:30;-6.70;99.90
22633;DHT22;11483;55.828;37.488;2023-02-28T01:04:56;-6.70;99.90
22633;DHT22;11483;55.828;37.488;2023-02-28T01:07:23;-6.70;99.90
22633;DHT22;11483;55.828;37.488;2023-02-28T01:09:49;-6.70;99.90
22633;DHT22;11483;55.828;37.488;2023-02-28T01:12:15;-6.80;99.90
22633;DHT22;11483;55.828;37.488;2023-02-28T01:14:42;-6.80;99.90
22633;DHT22;11483;55.828;37.488;2023-02-28T01:17:08;-6.80;99.90
22633;DHT22;11483;55.828;37.488;2023-02-28T01:19:34;-6.90;99.90
22633;DHT22;11483;55.828;37.488;2023-02-28T01:22:05;-6.90;99.90
22633;DHT22;11483;55.828;37.488;2023-02-28T01:24:31;-7.00;99.90
22633;DHT22;11483;55.828;37.488;2023-02-28T01:26:57;-7.00;99.90
22633;DHT22;11483;55.828;37.488;2023-02-28T01:29:23;-7.00;99.90
22633;DHT22;11483;55.828;37.488;2023-02-28T01:31:48;-7.00;99.90
22633;DHT22;11483;55.828;37.488;2023-02-28T01:34:14;-7.00;99.90
22633;DHT22;11483;55.828;37.488;2023-02-28T01:36:40;-7.10;99.90
22633;DHT22;11483;55.828;37.488;2023-02-28T01:39:06;-7.10;99.90
22633;DHT22;11483;55.828;37.488;2023-02-28T01:41:33;-7.10;99.90
22633;DHT22;11483;55.828;37.488;2023-02-28T01:44:05;-7.10;99.90
22633;DHT22;11483;55.828;37.488;2023-02-28T01:46:34;-7.20;99.90
22633;DHT22;11483;55.828;37.488;2023-02-28T01:49:15;-7.10;99.90
22633;DHT22;11483;55.828;37.488;2023-02-28T01:51:45;-7.20;99.90
22633;DHT22;11483;55.828;37.488;2023-02-28T01:54:26;-7.20;99.90
22633;DHT22;11483;55.828;37.488;2023-02-28T01:59:40;-7.10;99.90
22633;DHT22;11483;55.828;37.488;2023-02-28T02:02:15;-7.10;99.90
22633;DHT22;11483;55.828;37.488;2023-02-28T02:05:24;-7.10;99.90
22633;DHT22;11483;55.828;37.488;2023-02-28T02:07:52;-7.10;99.90
22633;DHT22;11483;55.828;37.488;2023-02-28T02:10:39;-7.00;99.90
22633;DHT22;11483;55.828;37.488;2023-02-28T02:19:02;-6.90;99.90
22633;DHT22;11483;55.828;37.488;2023-02-28T02:33:06;-6.80;99.90
22633;DHT22;11483;55.828;37.488;2023-02-28T02:41:09;-6.80;99.90
22633;DHT22;11483;55.828;37.488;2023-02-28T02:44:02;-6.80;99.90
22633;DHT22;11483;55.828;37.488;2023-02-28T02:46:35;-6.80;99.90
22633;DHT22;11483;55.828;37.488;2023-02-28T02:49:07;-6.80;99.90
22633;DHT22;11483;55.828;37.488;2023-02-28T02:51:35;-6.80;99.90
22633;DHT22;11483;55.828;37.488;2023-02-28T02:54:07;-6.90;99.90
22633;DHT22;11483;55.828;37.488;2023-02-28T02:56:35;-6.90;99.90
22633;DHT22;11483;55.828;37.488;2023-02-28T02:59:06;-6.90;99.90
22633;DHT22;11483;55.828;37.488;2023-02-28T03:01:34;-6.90;99.90
22633;DHT22;11483;55.828;37.488;2023-02-28T03:04:07;-6.90;99.90
22633;DHT22;11483;55.828;37.488;2023-02-28T03:06:33;-6.90;99.90
22633;DHT22;11483;55.828;37.488;2023-02-28T03:09:01;-6.90;99.90
22633;DHT22;11483;55.828;37.488;2023-02-28T03:11:27;-7.00;99.90
22633;DHT22;11483;55.828;37.488;2023-02-28T03:14:06;-7.00;99.90
22633;DHT22;11483;55.828;37.488;2023-02-28T03:16:42;-7.00;99.90
22633;DHT22;11483;55.828;37.488;2023-02-28T03:19:34;-6.90;99.90
22633;DHT22;11483;55.828;37.488;2023-02-28T03:30:57;-7.00;99.90
22633;DHT22;11483;55.828;37.488;2023-02-28T03:33:32;-6.90;99.90
22633;DHT22;11483;55.828;37.488;2023-02-28T03:36:21;-6.90;99.90
22633;DHT22;11483;55.828;37.488;2023-02-28T03:41:23;-7.00;99.90
22633;DHT22;11483;55.828;37.488;2023-02-28T03:44:12;-6.90;99.90
22633;DHT22;11483;55.828;37.488;2023-02-28T03:46:58;-6.90;99.90
22633;DHT22;11483;55.828;37.488;2023-02-28T03:49:42;-7.00;99.90
22633;DHT22;11483;55.828;37.488;2023-02-28T03:52:11;-7.00;99.90
22633;DHT22;11483;55.828;37.488;2023-02-28T03:54:44;-7.00;99.90
22633;DHT22;11483;55.828;37.488;2023-02-28T03:57:27;-7.10;99.90
22633;DHT22;11483;55.828;37.488;2023-02-28T04:00:04;-7.10;99.90
22633;DHT22;11483;55.828;37.488;2023-02-28T04:02:32;-7.10;99.90
22633;DHT22;11483;55.828;37.488;2023-02-28T04:04:59;-7.20;99.90
22633;DHT22;11483;55.828;37.488;2023-02-28T04:07:25;-7.10;99.90
22633;DHT22;11483;55.828;37.488;2023-02-28T04:09:54;-7.20;99.90
22633;DHT22;11483;55.828;37.488;2023-02-28T04:12:20;-7.10;99.90
22633;DHT22;11483;55.828;37.488;2023-02-28T04:14:49;-7.10;99.90
22633;DHT22;11483;55.828;37.488;2023-02-28T04:17:15;-7.10;99.90
22633;DHT22;11483;55.828;37.488;2023-02-28T04:19:41;-7.10;99.90
22633;DHT22;11483;55.828;37.488;2023-02-28T04:22:08;-7.10;99.90
22633;DHT22;11483;55.828;37.488;2023-02-28T04:24:34;-7.20;99.90
22633;DHT22;11483;55.828;37.488;2023-02-28T04:27:01;-7.20;99.90
22633;DHT22;11483;55.828;37.488;2023-02-28T04:29:30;-7.20;99.90
22633;DHT22;11483;55.828;37.488;2023-02-28T04:31:56;-7.20;99.90
22633;DHT22;11483;55.828;37.488;2023-02-28T04:34:29;-7.20;99.90
22633;DHT22;11483;55.828;37.488;2023-02-28T04:36:56;-7.10;99.90
22633;DHT22;11483;55.828;37.488;2023-02-28T04:39:23;-7.10;99.90
22633;DHT22;11483;55.828;37.488;2023-02-28T04:41:49;-7.10;99.90
22633;DHT22;11483;55.828;37.488;2023-02-28T04:44:15;-7.10;99.90
22633;DHT22;11483;55.828;37.488;2023-02-28T04:46:42;-7.00;99.90
22633;DHT22;11483;55.828;37.488;2023-02-28T04:49:12;-7.10;99.90
22633;DHT22;11483;55.828;37.488;2023-02-28T04:51:38;-7.00;99.90
22633;DHT22;11483;55.828;37.488;2023-02-28T04:54:04;-7.00;99.90
22633;DHT22;11483;55.828;37.488;2023-02-28T04:56:30;-7.00;99.90
22633;DHT22;11483;55.828;37.488;2023-02-28T04:58:56;-6.90;99.90
22633;DHT22;11483;55.828;37.488;2023-02-28T05:01:25;-6.90;99.90
22633;DHT22;11483;55.828;37.488;2023-02-28T05:03:52;-6.90;99.90
22633;DHT22;11483;55.828;37.488;2023-02-28T05:06:19;-6.90;99.90
22633;DHT22;11483;55.828;37.488;2023-02-28T05:08:46;-6.80;99.90
22633;DHT22;11483;55.828;37.488;2023-02-28T05:11:21;-6.80;99.90
22633;DHT22;11483;55.828;37.488;2023-02-28T05:13:49;-6.80;99.90
22633;DHT22;11483;55.828;37.488;2023-02-28T05:16:16;-6.70;99.90
22633;DHT22;11483;55.828;37.488;2023-02-28T05:18:42;-6.70;99.90
22633;DHT22;11483;55.828;37.488;2023-02-28T05:23:52;-6.60;99.90
22633;DHT22;11483;55.828;37.488;2023-02-28T05:26:19;-6.60;99.90
22633;DHT22;11483;55.828;37.488;2023-02-28T05:28:45;-6.60;99.90
22633;DHT22;11483;55.828;37.488;2023-02-28T05:31:11;-6.60;99.90
22633;DHT22;11483;55.828;37.488;2023-02-28T05:33:40;-6.50;99.90
22633;DHT22;11483;55.828;37.488;2023-02-28T05:36:06;-6.50;99.90
22633;DHT22;11483;55.828;37.488;2023-02-28T05:38:32;-6.50;99.90
22633;DHT22;11483;55.828;37.488;2023-02-28T05:40:58;-6.50;99.90
22633;DHT22;11483;55.828;37.488;2023-02-28T05:43:24;-6.40;99.90
22633;DHT22;11483;55.828;37.488;2023-02-28T05:45:50;-6.40;99.90
22633;DHT22;11483;55.828;37.488;2023-02-28T05:48:16;-6.40;99.90
22633;DHT22;11483;55.828;37.488;2023-02-28T05:50:43;-6.40;99.90
22633;DHT22;11483;55.828;37.488;2023-02-28T05:53:11;-6.30;99.90
22633;DHT22;11483;55.828;37.488;2023-02-28T05:55:37;-6.30;99.90
22633;DHT22;11483;55.828;37.488;2023-02-28T05:58:03;-6.20;99.90
22633;DHT22;11483;55.828;37.488;2023-02-28T06:00:29;-6.30;99.90
22633;DHT22;11483;55.828;37.488;2023-02-28T06:02:55;-6.20;99.90
22633;DHT22;11483;55.828;37.488;2023-02-28T06:05:24;-6.10;99.90
22633;DHT22;11483;55.828;37.488;2023-02-28T06:07:50;-6.10;99.90
22633;DHT22;11483;55.828;37.488;2023-02-28T06:10:16;-6.00;99.90
22633;DHT22;11483;55.828;37.488;2023-02-28T06:12:42;-5.90;99.90
22633;DHT22;11483;55.828;37.488;2023-02-28T06:15:12;-5.90;99.90
22633;DHT22;11483;55.828;37.488;2023-02-28T06:17:42;-5.60;99.90
22633;DHT22;11483;55.828;37.488;2023-02-28T06:20:10;-5.50;99.90
22633;DHT22;11483;55.828;37.488;2023-02-28T06:22:38;-5.40;99.90
22633;DHT22;11483;55.828;37.488;2023-02-28T06:25:05;-5.40;99.90
22633;DHT22;11483;55.828;37.488;2023-02-28T06:27:32;-5.30;99.90
22633;DHT22;11483;55.828;37.488;2023-02-28T06:29:58;-5.20;99.90
22633;DHT22;11483;55.828;37.488;2023-02-28T06:32:24;-5.10;99.90
22633;DHT22;11483;55.828;37.488;2023-02-28T06:34:50;-5.00;99.90
22633;DHT22;11483;55.828;37.488;2023-02-28T06:37:17;-4.90;99.90
22633;DHT22;11483;55.828;37.488;2023-02-28T06:39:43;-4.80;99.90
22633;DHT22;11483;55.828;37.488;2023-02-28T06:42:09;-4.70;99.90
22633;DHT22;11483;55.828;37.488;2023-02-28T06:44:35;-4.60;99.90
22633;DHT22;11483;55.828;37.488;2023-02-28T06:47:03;-4.50;99.90
22633;DHT22;11483;55.828;37.488;2023-02-28T06:49:34;-4.40;99.90
22633;DHT22;11483;55.828;37.488;2023-02-28T06:52:01;-4.30;99.90
22633;DHT22;11483;55.828;37.488;2023-02-28T06:54:27;-4.30;99.90
22633;DHT22;11483;55.828;37.488;2023-02-28T06:56:53;-4.30;99.90
22633;DHT22;11483;55.828;37.488;2023-02-28T06:59:20;-4.20;99.90
22633;DHT22;11483;55.828;37.488;2023-02-28T07:01:46;-4.20;99.90
22633;DHT22;11483;55.828;37.488;2023-02-28T07:04:12;-4.30;99.90
22633;DHT22;11483;55.828;37.488;2023-02-28T07:06:38;-4.20;99.90
22633;DHT22;11483;55.828;37.488;2023-02-28T07:09:04;-4.10;99.90
22633;DHT22;11483;55.828;37.488;2023-02-28T07:11:31;-4.10;99.90
22633;DHT22;11483;55.828;37.488;2023-02-28T07:13:57;-4.20;99.90
22633;DHT22;11483;55.828;37.488;2023-02-28T07:16:24;-4.20;99.90
22633;DHT22;11483;55.828;37.488;2023-02-28T07:18:52;-4.00;99.90
22633;DHT22;11483;55.828;37.488;2023-02-28T07:21:18;-4.00;99.90
22633;DHT22;11483;55.828;37.488;2023-02-28T07:23:44;-3.90;99.90
22633;DHT22;11483;55.828;37.488;2023-02-28T07:26:12;-3.90;99.90
22633;DHT22;11483;55.828;37.488;2023-02-28T07:28:41;-3.80;99.90
22633;DHT22;11483;55.828;37.488;2023-02-28T07:31:12;-3.60;99.90
22633;DHT22;11483;55.828;37.488;2023-02-28T07:33:39;-3.50;99.90
22633;DHT22;11483;55.828;37.488;2023-02-28T07:36:16;-3.60;99.90
22633;DHT22;11483;55.828;37.488;2023-02-28T07:38:48;-3.50;99.90
22633;DHT22;11483;55.828;37.488;2023-02-28T07:41:20;-3.40;99.90
22633;DHT22;11483;55.828;37.488;2023-02-28T07:43:46;-3.30;99.90
22633;DHT22;11483;55.828;37.488;2023-02-28T07:46:15;-3.20;99.90
22633;DHT22;11483;55.828;37.488;2023-02-28T07:48:41;-3.10;99.90
22633;DHT22;11483;55.828;37.488;2023-02-28T07:51:07;-3.00;99.90
22633;DHT22;11483;55.828;37.488;2023-02-28T07:53:33;-3.00;99.90
22633;DHT22;11483;55.828;37.488;2023-02-28T07:56:00;-3.20;99.90
22633;DHT22;11483;55.828;37.488;2023-02-28T07:58:27;-3.30;99.90
22633;DHT22;11483;55.828;37.488;2023-02-28T08:00:54;-3.20;99.90
22633;DHT22;11483;55.828;37.488;2023-02-28T08:03:21;-3.10;99.90
22633;DHT22;11483;55.828;37.488;2023-02-28T08:05:48;-2.90;99.90
22633;DHT22;11483;55.828;37.488;2023-02-28T08:08:15;-2.90;99.90
22633;DHT22;11483;55.828;37.488;2023-02-28T08:10:41;-2.90;99.90
22633;DHT22;11483;55.828;37.488;2023-02-28T08:13:07;-2.90;99.90
22633;DHT22;11483;55.828;37.488;2023-02-28T08:15:33;-2.90;99.90
22633;DHT22;11483;55.828;37.488;2023-02-28T08:17:59;-2.80;99.90
22633;DHT22;11483;55.828;37.488;2023-02-28T08:20:25;-2.70;99.90
22633;DHT22;11483;55.828;37.488;2023-02-28T08:22:51;-2.70;99.90
22633;DHT22;11483;55.828;37.488;2023-02-28T08:25:18;-2.70;99.90
22633;DHT22;11483;55.828;37.488;2023-02-28T08:27:44;-2.70;99.90
22633;DHT22;11483;55.828;37.488;2023-02-28T08:30:11;-2.60;99.90
22633;DHT22;11483;55.828;37.488;2023-02-28T08:32:38;-2.60;99.90
22633;DHT22;11483;55.828;37.488;2023-02-28T08:35:05;-2.50;99.90
22633;DHT22;11483;55.828;37.488;2023-02-28T08:37:31;-2.60;99.90
22633;DHT22;11483;55.828;37.488;2023-02-28T08:39:56;-2.60;99.90
22633;DHT22;11483;55.828;37.488;2023-02-28T08:42:23;-2.60;99.90
22633;DHT22;11483;55.828;37.488;2023-02-28T08:44:49;-2.60;99.90
22633;DHT22;11483;55.828;37.488;2023-02-28T08:47:15;-2.60;99.90
22633;DHT22;11483;55.828;37.488;2023-02-28T08:49:41;-2.50;99.90
22633;DHT22;11483;55.828;37.488;2023-02-28T08:52:07;-2.50;99.90
22633;DHT22;11483;55.828;37.488;2023-02-28T08:54:33;-2.50;99.90
22633;DHT22;11483;55.828;37.488;2023-02-28T08:57:00;-2.40;99.90
22633;DHT22;11483;55.828;37.488;2023-02-28T08:59:25;-2.50;99.90
22633;DHT22;11483;55.828;37.488;2023-02-28T09:01:51;-2.50;99.90
22633;DHT22;11483;55.828;37.488;2023-02-28T09:04:17;-2.40;99.90
22633;DHT22;11483;55.828;37.488;2023-02-28T09:06:43;-2.40;99.90
22633;DHT22;11483;55.828;37.488;2023-02-28T09:09:10;-2.30;99.90
22633;DHT22;11483;55.828;37.488;2023-02-28T09:11:36;-2.30;99.90
22633;DHT22;11483;55.828;37.488;2023-02-28T09:14:03;-2.20;99.90
22633;DHT22;11483;55.828;37.488;2023-02-28T09:16:30;-2.10;99.90
22633;DHT22;11483;55.828;37.488;2023-02-28T09:18:57;-2.00;99.90
22633;DHT22;11483;55.828;37.488;2023-02-28T09:21:23;-1.90;99.90
22633;DHT22;11483;55.828;37.488;2023-02-28T09:23:49;-1.90;99.90
22633;DHT22;11483;55.828;37.488;2023-02-28T09:26:21;-1.90;99.90
22633;DHT22;11483;55.828;37.488;2023-02-28T09:28:48;-2.00;99.90
22633;DHT22;11483;55.828;37.488;2023-02-28T09:31:18;-2.00;99.90
22633;DHT22;11483;55.828;37.488;2023-02-28T09:33:50;-1.90;99.90
22633;DHT22;11483;55.828;37.488;2023-02-28T09:36:18;-2.00;99.90
22633;DHT22;11483;55.828;37.488;2023-02-28T09:38:44;-2.00;99.90
22633;DHT22;11483;55.828;37.488;2023-02-28T09:41:42;-2.00;99.90
22633;DHT22;11483;55.828;37.488;2023-02-28T09:44:40;-2.00;99.90
22633;DHT22;11483;55.828;37.488;2023-02-28T09:47:26;-2.00;99.90
22633;DHT22;11483;55.828;37.488;2023-02-28T09:49:53;-2.00;99.90
22633;DHT22;11483;55.828;37.488;2023-02-28T09:52:23;-2.00;99.90
22633;DHT22;11483;55.828;37.488;2023-02-28T09:54:49;-2.00;99.90
22633;DHT22;11483;55.828;37.488;2023-02-28T09:57:32;-2.00;99.90
22633;DHT22;11483;55.828;37.488;2023-02-28T10:10:40;-1.80;99.90
22633;DHT22;11483;55.828;37.488;2023-02-28T10:15:50;-1.80;99.90
22633;DHT22;11483;55.828;37.488;2023-02-28T10:18:22;-1.90;99.90
22633;DHT22;11483;55.828;37.488;2023-02-28T10:20:50;-1.90;99.90
22633;DHT22;11483;55.828;37.488;2023-02-28T10:23:25;-1.90;99.90
22633;DHT22;11483;55.828;37.488;2023-02-28T10:25:59;-2.00;99.90
22633;DHT22;11483;55.828;37.488;2023-02-28T10:28:26;-2.00;99.90
22633;DHT22;11483;55.828;37.488;2023-02-28T10:30:54;-1.90;99.90
22633;DHT22;11483;55.828;37.488;2023-02-28T10:33:25;-1.90;99.90
22633;DHT22;11483;55.828;37.488;2023-02-28T10:35:51;-1.90;99.90
22633;DHT22;11483;55.828;37.488;2023-02-28T10:38:21;-1.90;99.90
22633;DHT22;11483;55.828;37.488;2023-02-28T10:40:47;-1.80;99.90
22633;DHT22;11483;55.828;37.488;2023-02-28T10:45:40;-1.90;99.90
22633;DHT22;11483;55.828;37.488;2023-02-28T11:03:47;-1.60;99.90
22633;DHT22;11483;55.828;37.488;2023-02-28T11:06:21;-1.60;99.90
22633;DHT22;11483;55.828;37.488;2023-02-28T11:08:53;-1.50;99.90
22633;DHT22;11483;55.828;37.488;2023-02-28T11:11:22;-1.50;99.90
22633;DHT22;11483;55.828;37.488;2023-02-28T11:13:53;-1.60;99.90
22633;DHT22;11483;55.828;37.488;2023-02-28T11:16:20;-1.60;99.90
22633;DHT22;11483;55.828;37.488;2023-02-28T11:21:23;-1.50;99.90
22633;DHT22;11483;55.828;37.488;2023-02-28T11:23:54;-1.50;99.90
22633;DHT22;11483;55.828;37.488;2023-02-28T11:26:43;-1.50;99.90
22633;DHT22;11483;55.828;37.488;2023-02-28T11:29:16;-1.40;99.90
22633;DHT22;11483;55.828;37.488;2023-02-28T11:31:43;-1.30;99.90
22633;DHT22;11483;55.828;37.488;2023-02-28T11:34:25;-1.30;99.90
22633;DHT22;11483;55.828;37.488;2023-02-28T11:36:53;-1.30;99.90
22633;DHT22;11483;55.828;37.488;2023-02-28T11:39:20;-1.20;99.90
22633;DHT22;11483;55.828;37.488;2023-02-28T11:44:55;-1.20;99.90
22633;DHT22;11483;55.828;37.488;2023-02-28T11:50:10;-1.30;99.90
22633;DHT22;11483;55.828;37.488;2023-02-28T11:52:57;-1.40;99.90
22633;DHT22;11483;55.828;37.488;2023-02-28T12:06:48;-1.50;99.90
22633;DHT22;11483;55.828;37.488;2023-02-28T12:17:34;-1.50;99.90
22633;DHT22;11483;55.828;37.488;2023-02-28T12:26:19;-1.50;99.90
22633;DHT22;11483;55.828;37.488;2023-02-28T12:28:51;-1.50;99.90
22633;DHT22;11483;55.828;37.488;2023-02-28T12:31:25;-1.60;99.90
22633;DHT22;11483;55.828;37.488;2023-02-28T12:33:59;-1.60;99.90
22633;DHT22;11483;55.828;37.488;2023-02-28T12:36:27;-1.60;99.90
22633;DHT22;11483;55.828;37.488;2023-02-28T12:39:19;-1.60;99.90
22633;DHT22;11483;55.828;37.488;2023-02-28T12:44:35;-1.60;99.90
22633;DHT22;11483;55.828;37.488;2023-02-28T12:47:10;-1.60;99.90
22633;DHT22;11483;55.828;37.488;2023-02-28T12:49:52;-1.60;99.90
22633;DHT22;11483;55.828;37.488;2023-02-28T13:01:10;-1.50;99.90
22633;DHT22;11483;55.828;37.488;2023-02-28T13:09:18;-1.40;99.90
22633;DHT22;11483;55.828;37.488;2023-02-28T13:11:52;-1.40;99.90
22633;DHT22;11483;55.828;37.488;2023-02-28T13:14:25;-1.30;99.90
22633;DHT22;11483;55.828;37.488;2023-02-28T13:17:09;-1.30;99.90
22633;DHT22;11483;55.828;37.488;2023-02-28T13:20:13;-1.30;99.90
22633;DHT22;11483;55.828;37.488;2023-02-28T13:22:40;-1.30;99.90
22633;DHT22;11483;55.828;37.488;2023-02-28T13:25:49;-1.20;99.90
22633;DHT22;11483;55.828;37.488;2023-02-28T13:28:13;-1.20;99.90
22633;DHT22;11483;55.828;37.488;2023-02-28T13:31:03;-1.20;99.90
22633;DHT22;11483;55.828;37.488;2023-02-28T13:33:34;-1.10;99.90
22633;DHT22;11483;55.828;37.488;2023-02-28T13:38:48;-1.00;99.90
22633;DHT22;11483;55.828;37.488;2023-02-28T13:44:08;-1.00;99.90
22633;DHT22;11483;55.828;37.488;2023-02-28T13:49:32;-1.00;99.90
22633;DHT22;11483;55.828;37.488;2023-02-28T13:54:57;-0.90;99.90
22633;DHT22;11483;55.828;37.488;2023-02-28T13:57:50;-0.90;99.90
22633;DHT22;11483;55.828;37.488;2023-02-28T14:05:43;-0.90;99.90
22633;DHT22;11483;55.828;37.488;2023-02-28T14:08:19;-0.90;99.90
22633;DHT22;11483;55.828;37.488;2023-02-28T14:11:02;-0.90;99.90
22633;DHT22;11483;55.828;37.488;2023-02-28T14:13:45;-1.00;99.90
22633;DHT22;11483;55.828;37.488;2023-02-28T14:16:25;-0.90;99.90
22633;DHT22;11483;55.828;37.488;2023-02-28T14:18:56;-0.90;99.90
22633;DHT22;11483;55.828;37.488;2023-02-28T14:35:18;-1.00;99.90
22633;DHT22;11483;55.828;37.488;2023-02-28T14:37:46;-1.00;99.90
22633;DHT22;11483;55.828;37.488;2023-02-28T14:40:40;-1.00;99.90
22633;DHT22;11483;55.828;37.488;2023-02-28T14:43:17;-0.90;99.90
22633;DHT22;11483;55.828;37.488;2023-02-28T14:45:47;-0.90;99.90
22633;DHT22;11483;55.828;37.488;2023-02-28T14:48:15;-0.90;99.90
22633;DHT22;11483;55.828;37.488;2023-02-28T14:50:49;-0.90;99.90
22633;DHT22;11483;55.828;37.488;2023-02-28T14:53:20;-0.90;99.90
22633;DHT22;11483;55.828;37.488;2023-02-28T14:55:48;-0.90;99.90
22633;DHT22;11483;55.828;37.488;2023-02-28T14:58:30;-0.90;99.90
22633;DHT22;11483;55.828;37.488;2023-02-28T15:01:02;-0.90;99.90
22633;DHT22;11483;55.828;37.488;2023-02-28T15:03:32;-0.90;99.90
22633;DHT22;11483;55.828;37.488;2023-02-28T15:06:18;-0.90;99.90
22633;DHT22;11483;55.828;37.488;2023-02-28T15:08:46;-0.80;99.90
22633;DHT22;11483;55.828;37.488;2023-02-28T15:11:17;-0.80;99.90
22633;DHT22;11483;55.828;37.488;2023-02-28T15:13:54;-0.80;99.90
22633;DHT22;11483;55.828;37.488;2023-02-28T15:16:37;-0.80;99.90
22633;DHT22;11483;55.828;37.488;2023-02-28T15:21:43;-0.70;99.90
22633;DHT22;11483;55.828;37.488;2023-02-28T15:24:29;-0.70;99.90
22633;DHT22;11483;55.828;37.488;2023-02-28T15:26:58;-0.60;99.90
22633;DHT22;11483;55.828;37.488;2023-02-28T15:29:29;-0.60;99.90
22633;DHT22;11483;55.828;37.488;2023-02-28T15:32:04;-0.50;99.90
22633;DHT22;11483;55.828;37.488;2023-02-28T15:37:26;-0.50;99.90
22633;DHT22;11483;55.828;37.488;2023-02-28T15:40:28;-0.40;99.90
22633;DHT22;11483;55.828;37.488;2023-02-28T15:43:18;-0.40;99.90
22633;DHT22;11483;55.828;37.488;2023-02-28T15:46:09;-0.40;99.90
22633;DHT22;11483;55.828;37.488;2023-02-28T15:48:54;-0.40;99.90
22633;DHT22;11483;55.828;37.488;2023-02-28T15:54:08;-0.30;99.90
22633;DHT22;11483;55.828;37.488;2023-02-28T15:56:43;-0.30;99.90
22633;DHT22;11483;55.828;37.488;2023-02-28T15:59:33;-0.30;99.90
22633;DHT22;11483;55.828;37.488;2023-02-28T16:04:37;-0.30;99.90
22633;DHT22;11483;55.828;37.488;2023-02-28T16:07:05;-0.20;99.90
22633;DHT22;11483;55.828;37.488;2023-02-28T16:09:32;-0.20;99.90
22633;DHT22;11483;55.828;37.488;2023-02-28T16:12:02;-0.20;99.90
22633;DHT22;11483;55.828;37.488;2023-02-28T16:14:29;-0.10;99.90
22633;DHT22;11483;55.828;37.488;2023-02-28T16:17:07;-0.10;99.90
22633;DHT22;11483;55.828;37.488;2023-02-28T16:19:36;-0.10;99.90
22633;DHT22;11483;55.828;37.488;2023-02-28T16:22:02;-0.10;99.90
22633;DHT22;11483;55.828;37.488;2023-02-28T16:24:27;-0.10;99.90
22633;DHT22;11483;55.828;37.488;2023-02-28T16:26:56;-0.10;99.90
22633;DHT22;11483;55.828;37.488;2023-02-28T16:29:32;0.00;99.90
22633;DHT22;11483;55.828;37.488;2023-02-28T16:31:59;0.00;99.90
22633;DHT22;11483;55.828;37.488;2023-02-28T16:34:26;0.00;99.90
22633;DHT22;11483;55.828;37.488;2023-02-28T16:36:52;0.00;99.90
22633;DHT22;11483;55.828;37.488;2023-02-28T16:39:18;0.00;99.90
22633;DHT22;11483;55.828;37.488;2023-02-28T16:41:47;-0.10;99.90
22633;DHT22;11483;55.828;37.488;2023-02-28T16:44:34;-0.10;99.90
22633;DHT22;11483;55.828;37.488;2023-02-28T16:47:02;-0.10;99.90
22633;DHT22;11483;55.828;37.488;2023-02-28T16:49:29;-0.10;99.90
22633;DHT22;11483;55.828;37.488;2023-02-28T16:51:55;-0.10;99.90
22633;DHT22;11483;55.828;37.488;2023-02-28T16:54:21;-0.30;99.90
22633;DHT22;11483;55.828;37.488;2023-02-28T16:56:48;-0.30;99.90
22633;DHT22;11483;55.828;37.488;2023-02-28T16:59:24;-0.30;99.90
22633;DHT22;11483;55.828;37.488;2023-02-28T17:01:52;-0.30;99.90
22633;DHT22;11483;55.828;37.488;2023-02-28T17:04:18;-0.40;99.90
22633;DHT22;11483;55.828;37.488;2023-02-28T17:06:44;-0.40;99.90
22633;DHT22;11483;55.828;37.488;2023-02-28T17:09:18;-0.40;99.90
22633;DHT22;11483;55.828;37.488;2023-02-28T17:11:45;-0.40;99.90
22633;DHT22;11483;55.828;37.488;2023-02-28T17:14:11;-0.40;99.90
22633;DHT22;11483;55.828;37.488;2023-02-28T17:16:38;-0.40;99.90
22633;DHT22;11483;55.828;37.488;2023-02-28T17:19:15;-0.30;99.90
22633;DHT22;11483;55.828;37.488;2023-02-28T17:21:42;-0.40;99.90
22633;DHT22;11483;55.828;37.488;2023-02-28T17:24:09;-0.30;99.90
22633;DHT22;11483;55.828;37.488;2023-02-28T17:26:41;-0.30;99.90
22633;DHT22;11483;55.828;37.488;2023-02-28T17:29:20;-0.30;99.90
22633;DHT22;11483;55.828;37.488;2023-02-28T17:31:46;-0.30;99.90
22633;DHT22;11483;55.828;37.488;2023-02-28T17:34:12;-0.30;99.90
22633;DHT22;11483;55.828;37.488;2023-02-28T17:36:44;-0.30;99.90
22633;DHT22;11483;55.828;37.488;2023-02-28T17:39:13;-0.20;99.90
22633;DHT22;11483;55.828;37.488;2023-02-28T17:41:58;-0.10;99.90
22633;DHT22;11483;55.828;37.488;2023-02-28T17:44:24;-0.10;99.90
22633;DHT22;11483;55.828;37.488;2023-02-28T17:46:51;-0.30;99.90
22633;DHT22;11483;55.828;37.488;2023-02-28T17:49:18;-0.70;99.90
22633;DHT22;11483;55.828;37.488;2023-02-28T17:51:44;-1.00;99.90
22633;DHT22;11483;55.828;37.488;2023-02-28T17:54:10;-1.30;99.90
22633;DHT22;11483;55.828;37.488;2023-02-28T17:56:36;-1.50;99.90
22633;DHT22;11483;55.828;37.488;2023-02-28T17:59:02;-1.60;99.90
22633;DHT22;11483;55.828;37.488;2023-02-28T18:01:28;-1.80;99.90
22633;DHT22;11483;55.828;37.488;2023-02-28T18:03:55;-1.90;99.90
22633;DHT22;11483;55.828;37.488;2023-02-28T18:06:36;-2.00;99.90
22633;DHT22;11483;55.828;37.488;2023-02-28T18:09:19;-2.00;99.90
22633;DHT22;11483;55.828;37.488;2023-02-28T18:11:47;-2.10;99.90
22633;DHT22;11483;55.828;37.488;2023-02-28T18:14:18;-2.10;99.90
22633;DHT22;11483;55.828;37.488;2023-02-28T18:16:46;-2.00;99.90
22633;DHT22;11483;55.828;37.488;2023-02-28T18:19:13;-1.90;99.90